Houn Maru — JG5489 — position and weather

sailwx.info

Track history (hours):
 
Tides and Currents Weather Stations Pressure Air Temp Water Temp Dewpoint Dewpoint Depression Visibility Wind Speed Wind Dir Waves Ship Positions

Houn Maru

Last reported at 2016-Feb-11 01:21 UTC. Time now 2016-Feb-11 23:27 UTC.
Position N 34°35' E 134°51'.

Length 91 m; draft 4.5 m.

Type: Tanker. MMSI: 431101172.

Date/timePositionNaut miles runAvg speedWind from/ knotsBaromVisibWave heightAir tempDewpointWater temp
2016-Feb-11 01:21N 34°35' E 134°51'1114.5
2016-Feb-11 00:33N 34°36' E 135°05'1313.0
2016-Feb-10 23:33N 34°33' E 135°20'4 0.2
2016-Feb-10 08:15N 34°31' E 135°24'6 8.6
2016-Feb-10 07:33N 34°30' E 135°17'6 5.6
2016-Feb-10 06:33N 34°25' E 135°14'0 0.1
2016-Feb-10 01:33N 34°25' E 135°14'3 2.4
2016-Feb-10 00:25N 34°23' E 135°12'0 0.0
2016-Feb-09 22:31N 34°23' E 135°12'0 0.0
2016-Feb-09 21:31N 34°23' E 135°12'0 0.0
2016-Feb-09 20:31N 34°23' E 135°12'0 0.0
2016-Feb-09 19:25N 34°23' E 135°12'0 0.0
2016-Feb-09 18:31N 34°23' E 135°12'0 0.0
2016-Feb-09 16:31N 34°23' E 135°12'0 0.0
2016-Feb-09 15:31N 34°23' E 135°12'5 5.3
2016-Feb-09 14:33N 34°27' E 135°09'1111.4
2016-Feb-09 13:33N 34°37' E 135°01'7 0.3
2016-Feb-08 12:09N 34°35' E 134°53'712.4
2016-Feb-08 11:33N 34°37' E 135°01'1212.0
2016-Feb-08 10:33N 34°28' E 135°10'4 1.3
2016-Feb-08 07:04N 34°25' E 135°14'2 1.1
2016-Feb-08 05:28N 34°24' E 135°13'4 0.4
2016-Feb-07 20:30N 34°23' E 135°09'0 0.1
2016-Feb-07 19:30N 34°23' E 135°08'0 0.0
2016-Feb-07 18:30N 34°23' E 135°08'0 0.0
2016-Feb-07 17:30N 34°23' E 135°08'0 0.0
2016-Feb-07 16:30N 34°23' E 135°08'0 0.0
2016-Feb-07 15:30N 34°23' E 135°08'0 0.0
2016-Feb-07 12:30N 34°23' E 135°08'0 0.0
2016-Feb-07 11:12N 34°23' E 135°08'0 0.1
2016-Feb-07 10:30N 34°23' E 135°08'0 0.0
2016-Feb-07 08:30N 34°23' E 135°08'0 0.1
2016-Feb-07 07:30N 34°23' E 135°08'0 0.0
2016-Feb-07 06:24N 34°23' E 135°08'0 0.0
2016-Feb-07 05:12N 34°23' E 135°08'0 0.0
2016-Feb-07 02:30N 34°23' E 135°08'0 0.0
2016-Feb-07 01:30N 34°23' E 135°08'0 0.0
2016-Feb-06 23:24N 34°23' E 135°08'0 0.1
2016-Feb-06 22:30N 34°23' E 135°09'0 0.0
2016-Feb-06 21:30N 34°23' E 135°09'0 0.0
2016-Feb-06 20:24N 34°23' E 135°09'0 0.1
2016-Feb-06 19:30N 34°23' E 135°09'0 0.0
2016-Feb-06 18:30N 34°23' E 135°09'0 0.0
2016-Feb-06 17:30N 34°23' E 135°09'0 0.0
2016-Feb-06 16:12N 34°23' E 135°08'0 0.0
2016-Feb-06 15:30N 34°23' E 135°08'0 0.0
2016-Feb-06 14:30N 34°23' E 135°08'0 0.0
2016-Feb-06 12:24N 34°23' E 135°09'0 0.0
2016-Feb-06 11:30N 34°23' E 135°09'0 0.1
2016-Feb-06 10:24N 34°23' E 135°09'0 0.0
2016-Feb-06 08:18N 34°23' E 135°09'0 0.0
2016-Feb-06 07:30N 34°23' E 135°09'0 0.0
2016-Feb-06 06:30N 34°23' E 135°09'0 0.0
2016-Feb-06 03:06N 34°23' E 135°08'0 0.0
2016-Feb-06 01:06N 34°23' E 135°09'0 0.1
2016-Feb-06 00:18N 34°23' E 135°09'0 0.1
2016-Feb-05 23:30N 34°23' E 135°09'0 0.0
2016-Feb-05 22:24N 34°23' E 135°09'0 0.0
2016-Feb-05 20:12N 34°23' E 135°09'0 0.0
2016-Feb-05 18:24N 34°23' E 135°08'0 0.0
2016-Feb-05 16:30N 34°23' E 135°09'0 0.0
2016-Feb-05 14:06N 34°23' E 135°08'0 0.0
2016-Feb-05 13:24N 34°23' E 135°08'0 0.0
2016-Feb-05 12:30N 34°23' E 135°08'0 0.0
2016-Feb-05 11:30N 34°23' E 135°08'0 0.0
2016-Feb-05 10:30N 34°23' E 135°08'0 0.0
2016-Feb-05 09:21N 34°23' E 135°08'0 0.0
2016-Feb-05 08:30N 34°23' E 135°08'0 0.0
2016-Feb-05 07:06N 34°23' E 135°08'0 0.0
2016-Feb-05 06:30N 34°23' E 135°08'0 0.0
2016-Feb-05 00:06N 34°23' E 135°09'0 0.1
2016-Feb-04 23:30N 34°23' E 135°09'0 0.0
2016-Feb-04 22:30N 34°23' E 135°09'0 0.0
2016-Feb-04 20:12N 34°23' E 135°09'0 0.0
2016-Feb-04 19:24N 34°23' E 135°09'0 0.1
2016-Feb-04 18:30N 34°23' E 135°09'0 0.0
2016-Feb-04 17:12N 34°23' E 135°09'0 0.1
2016-Feb-04 16:30N 34°23' E 135°09'0 0.0
2016-Feb-04 15:30N 34°23' E 135°09'0 0.0
2016-Feb-04 11:18N 34°23' E 135°08'0 0.0
2016-Feb-04 10:12N 34°23' E 135°08'0 0.1
2016-Feb-04 09:30N 34°23' E 135°08'0 0.0
2016-Feb-04 07:30N 34°23' E 135°08'0 0.0
2016-Feb-04 06:24N 34°23' E 135°08'0 0.0
2016-Feb-04 00:30N 34°23' E 135°08'0 0.0
2016-Feb-03 23:24N 34°23' E 135°08'0 0.0
2016-Feb-03 21:12N 34°23' E 135°08'0 0.1
2016-Feb-03 20:24N 34°23' E 135°09'0 0.0
2016-Feb-03 18:06N 34°23' E 135°08'0 0.0
2016-Feb-03 17:30N 34°23' E 135°08'0 0.1
2016-Feb-03 16:30N 34°23' E 135°08'0 0.0
2016-Feb-03 15:24N 34°23' E 135°08'0 0.0
2016-Feb-03 14:30N 34°23' E 135°08'0 0.0
2016-Feb-03 13:26N 34°23' E 135°08'8 9.6
2016-Feb-03 12:33N 34°31' E 135°05'11 9.5
2016-Feb-03 11:25N 34°34' E 134°52'9 0.3
2016-Feb-02 05:34N 34°36' E 135°03'1312.6
2016-Feb-02 04:33N 34°25' E 135°11'3 1.1
2016-Feb-02 02:15N 34°25' E 135°14'0 0.0
2016-Feb-02 01:33N 34°25' E 135°14'0 0.0
2016-Feb-02 00:33N 34°25' E 135°14'2 2.2
2016-Feb-01 23:31N 34°23' E 135°13'0 0.1
2016-Feb-01 22:18N 34°23' E 135°12'0 0.1
2016-Feb-01 21:27N 34°23' E 135°12'0 0.0
2016-Feb-01 20:30N 34°23' E 135°12'0 0.1
2016-Feb-01 19:33N 34°23' E 135°12'0 0.0
2016-Feb-01 18:33N 34°23' E 135°12'0 0.0
2016-Feb-01 17:33N 34°23' E 135°12'0 0.0
2016-Feb-01 16:33N 34°23' E 135°12'0 0.0
2016-Feb-01 15:33N 34°23' E 135°12'0 0.0
2016-Feb-01 14:33N 34°23' E 135°12'1 1.4
2016-Feb-01 13:33N 34°24' E 135°11'1212.2
2016-Feb-01 12:34N 34°35' E 135°04'  
Track history (hours):
 
Tides and Currents Weather Stations Pressure Air Temp Water Temp Dewpoint Dewpoint Depression Visibility Wind Speed Wind Dir Waves Ship Positions

Houn Maru

Last reported at 2016-Feb-11 01:21 UTC. Time now 2016-Feb-11 23:27 UTC.
Position N 34°35' E 134°51'.

Length 91 m; draft 4.5 m.

Type: Tanker. MMSI: 431101172.

Date/timePositionNaut miles runAvg speedWind from/ knotsBaromVisibWave heightAir tempDewpointWater temp
2016-Feb-11 01:21N 34°35' E 134°51'1114.5
2016-Feb-11 00:33N 34°36' E 135°05'1313.0
2016-Feb-10 23:33N 34°33' E 135°20'4 0.2
2016-Feb-10 08:15N 34°31' E 135°24'6 8.6
2016-Feb-10 07:33N 34°30' E 135°17'6 5.6
2016-Feb-10 06:33N 34°25' E 135°14'0 0.1
2016-Feb-10 01:33N 34°25' E 135°14'3 2.4
2016-Feb-10 00:25N 34°23' E 135°12'0 0.0
2016-Feb-09 22:31N 34°23' E 135°12'0 0.0
2016-Feb-09 21:31N 34°23' E 135°12'0 0.0
2016-Feb-09 20:31N 34°23' E 135°12'0 0.0
2016-Feb-09 19:25N 34°23' E 135°12'0 0.0
2016-Feb-09 18:31N 34°23' E 135°12'0 0.0
2016-Feb-09 16:31N 34°23' E 135°12'0 0.0
2016-Feb-09 15:31N 34°23' E 135°12'5 5.3
2016-Feb-09 14:33N 34°27' E 135°09'1111.4
2016-Feb-09 13:33N 34°37' E 135°01'7 0.3
2016-Feb-08 12:09N 34°35' E 134°53'712.4
2016-Feb-08 11:33N 34°37' E 135°01'1212.0
2016-Feb-08 10:33N 34°28' E 135°10'4 1.3
2016-Feb-08 07:04N 34°25' E 135°14'2 1.1
2016-Feb-08 05:28N 34°24' E 135°13'4 0.4
2016-Feb-07 20:30N 34°23' E 135°09'0 0.1
2016-Feb-07 19:30N 34°23' E 135°08'0 0.0
2016-Feb-07 18:30N 34°23' E 135°08'0 0.0
2016-Feb-07 17:30N 34°23' E 135°08'0 0.0
2016-Feb-07 16:30N 34°23' E 135°08'0 0.0
2016-Feb-07 15:30N 34°23' E 135°08'0 0.0
2016-Feb-07 12:30N 34°23' E 135°08'0 0.0
2016-Feb-07 11:12N 34°23' E 135°08'0 0.1
2016-Feb-07 10:30N 34°23' E 135°08'0 0.0
2016-Feb-07 08:30N 34°23' E 135°08'0 0.1
2016-Feb-07 07:30N 34°23' E 135°08'0 0.0
2016-Feb-07 06:24N 34°23' E 135°08'0 0.0
2016-Feb-07 05:12N 34°23' E 135°08'0 0.0
2016-Feb-07 02:30N 34°23' E 135°08'0 0.0
2016-Feb-07 01:30N 34°23' E 135°08'0 0.0
2016-Feb-06 23:24N 34°23' E 135°08'0 0.1
2016-Feb-06 22:30N 34°23' E 135°09'0 0.0
2016-Feb-06 21:30N 34°23' E 135°09'0 0.0
2016-Feb-06 20:24N 34°23' E 135°09'0 0.1
2016-Feb-06 19:30N 34°23' E 135°09'0 0.0
2016-Feb-06 18:30N 34°23' E 135°09'0 0.0
2016-Feb-06 17:30N 34°23' E 135°09'0 0.0
2016-Feb-06 16:12N 34°23' E 135°08'0 0.0
2016-Feb-06 15:30N 34°23' E 135°08'0 0.0
2016-Feb-06 14:30N 34°23' E 135°08'0 0.0
2016-Feb-06 12:24N 34°23' E 135°09'0 0.0
2016-Feb-06 11:30N 34°23' E 135°09'0 0.1
2016-Feb-06 10:24N 34°23' E 135°09'0 0.0
2016-Feb-06 08:18N 34°23' E 135°09'0 0.0
2016-Feb-06 07:30N 34°23' E 135°09'0 0.0
2016-Feb-06 06:30N 34°23' E 135°09'0 0.0
2016-Feb-06 03:06N 34°23' E 135°08'0 0.0
2016-Feb-06 01:06N 34°23' E 135°09'0 0.1
2016-Feb-06 00:18N 34°23' E 135°09'0 0.1
2016-Feb-05 23:30N 34°23' E 135°09'0 0.0
2016-Feb-05 22:24N 34°23' E 135°09'0 0.0
2016-Feb-05 20:12N 34°23' E 135°09'0 0.0
2016-Feb-05 18:24N 34°23' E 135°08'0 0.0
2016-Feb-05 16:30N 34°23' E 135°09'0 0.0
2016-Feb-05 14:06N 34°23' E 135°08'0 0.0
2016-Feb-05 13:24N 34°23' E 135°08'0 0.0
2016-Feb-05 12:30N 34°23' E 135°08'0 0.0
2016-Feb-05 11:30N 34°23' E 135°08'0 0.0
2016-Feb-05 10:30N 34°23' E 135°08'0 0.0
2016-Feb-05 09:21N 34°23' E 135°08'0 0.0
2016-Feb-05 08:30N 34°23' E 135°08'0 0.0
2016-Feb-05 07:06N 34°23' E 135°08'0 0.0
2016-Feb-05 06:30N 34°23' E 135°08'0 0.0
2016-Feb-05 00:06N 34°23' E 135°09'0 0.1
2016-Feb-04 23:30N 34°23' E 135°09'0 0.0
2016-Feb-04 22:30N 34°23' E 135°09'0 0.0
2016-Feb-04 20:12N 34°23' E 135°09'0 0.0
2016-Feb-04 19:24N 34°23' E 135°09'0 0.1
2016-Feb-04 18:30N 34°23' E 135°09'0 0.0
2016-Feb-04 17:12N 34°23' E 135°09'0 0.1
2016-Feb-04 16:30N 34°23' E 135°09'0 0.0
2016-Feb-04 15:30N 34°23' E 135°09'0 0.0
2016-Feb-04 11:18N 34°23' E 135°08'0 0.0
2016-Feb-04 10:12N 34°23' E 135°08'0 0.1
2016-Feb-04 09:30N 34°23' E 135°08'0 0.0
2016-Feb-04 07:30N 34°23' E 135°08'0 0.0
2016-Feb-04 06:24N 34°23' E 135°08'0 0.0
2016-Feb-04 00:30N 34°23' E 135°08'0 0.0
2016-Feb-03 23:24N 34°23' E 135°08'0 0.0
2016-Feb-03 21:12N 34°23' E 135°08'0 0.1
2016-Feb-03 20:24N 34°23' E 135°09'0 0.0
2016-Feb-03 18:06N 34°23' E 135°08'0 0.0
2016-Feb-03 17:30N 34°23' E 135°08'0 0.1
2016-Feb-03 16:30N 34°23' E 135°08'0 0.0
2016-Feb-03 15:24N 34°23' E 135°08'0 0.0
2016-Feb-03 14:30N 34°23' E 135°08'0 0.0
2016-Feb-03 13:26N 34°23' E 135°08'8 9.6
2016-Feb-03 12:33N 34°31' E 135°05'11 9.5
2016-Feb-03 11:25N 34°34' E 134°52'9 0.3
2016-Feb-02 05:34N 34°36' E 135°03'1312.6
2016-Feb-02 04:33N 34°25' E 135°11'3 1.1
2016-Feb-02 02:15N 34°25' E 135°14'0 0.0
2016-Feb-02 01:33N 34°25' E 135°14'0 0.0
2016-Feb-02 00:33N 34°25' E 135°14'2 2.2
2016-Feb-01 23:31N 34°23' E 135°13'0 0.1
2016-Feb-01 22:18N 34°23' E 135°12'0 0.1
2016-Feb-01 21:27N 34°23' E 135°12'0 0.0
2016-Feb-01 20:30N 34°23' E 135°12'0 0.1
2016-Feb-01 19:33N 34°23' E 135°12'0 0.0
2016-Feb-01 18:33N 34°23' E 135°12'0 0.0
2016-Feb-01 17:33N 34°23' E 135°12'0 0.0
2016-Feb-01 16:33N 34°23' E 135°12'0 0.0
2016-Feb-01 15:33N 34°23' E 135°12'0 0.0
2016-Feb-01 14:33N 34°23' E 135°12'1 1.4
2016-Feb-01 13:33N 34°24' E 135°11'1212.2
2016-Feb-01 12:34N 34°35' E 135°04'  

Dump ship's entire track history